sensor_id;sensor_type;location;lat;lon;timestamp;P1;durP1;ratioP1;P2;durP2;ratioP2
12950;SDS011;6540;50.858;7.232;2022-09-16T00:00:05;2.30;;;1.47;;
12950;SDS011;6540;50.858;7.232;2022-09-16T00:02:32;2.30;;;1.20;;
12950;SDS011;6540;50.858;7.232;2022-09-16T00:04:57;2.30;;;1.77;;
12950;SDS011;6540;50.858;7.232;2022-09-16T00:07:22;1.80;;;1.60;;
12950;SDS011;6540;50.858;7.232;2022-09-16T00:09:48;2.47;;;1.30;;
12950;SDS011;6540;50.858;7.232;2022-09-16T00:12:13;2.67;;;1.50;;
12950;SDS011;6540;50.858;7.232;2022-09-16T00:14:39;4.97;;;1.67;;
12950;SDS011;6540;50.858;7.232;2022-09-16T00:17:04;3.20;;;1.80;;
12950;SDS011;6540;50.858;7.232;2022-09-16T00:19:30;3.10;;;1.60;;
12950;SDS011;6540;50.858;7.232;2022-09-16T00:21:55;2.83;;;1.37;;
12950;SDS011;6540;50.858;7.232;2022-09-16T00:24:21;2.10;;;1.70;;
12950;SDS011;6540;50.858;7.232;2022-09-16T00:26:46;3.17;;;2.23;;
12950;SDS011;6540;50.858;7.232;2022-09-16T00:29:11;3.93;;;1.70;;
12950;SDS011;6540;50.858;7.232;2022-09-16T00:31:37;2.73;;;1.83;;
12950;SDS011;6540;50.858;7.232;2022-09-16T00:34:02;2.37;;;1.70;;
12950;SDS011;6540;50.858;7.232;2022-09-16T00:36:28;2.20;;;2.00;;
12950;SDS011;6540;50.858;7.232;2022-09-16T00:38:54;3.53;;;1.60;;
12950;SDS011;6540;50.858;7.232;2022-09-16T00:41:21;2.97;;;1.70;;
12950;SDS011;6540;50.858;7.232;2022-09-16T00:46:19;4.13;;;1.60;;
12950;SDS011;6540;50.858;7.232;2022-09-16T00:48:49;1.93;;;1.37;;
12950;SDS011;6540;50.858;7.232;2022-09-16T00:51:15;3.47;;;1.60;;
12950;SDS011;6540;50.858;7.232;2022-09-16T00:53:42;3.73;;;2.20;;
12950;SDS011;6540;50.858;7.232;2022-09-16T00:56:16;3.53;;;1.70;;
12950;SDS011;6540;50.858;7.232;2022-09-16T00:58:48;4.63;;;1.50;;
12950;SDS011;6540;50.858;7.232;2022-09-16T01:01:18;2.93;;;1.97;;
12950;SDS011;6540;50.858;7.232;2022-09-16T01:03:47;4.77;;;1.80;;
12950;SDS011;6540;50.858;7.232;2022-09-16T01:06:16;4.90;;;1.90;;
12950;SDS011;6540;50.858;7.232;2022-09-16T01:08:43;1.70;;;1.60;;
12950;SDS011;6540;50.858;7.232;2022-09-16T01:11:10;2.20;;;2.00;;
12950;SDS011;6540;50.858;7.232;2022-09-16T01:13:36;8.80;;;2.07;;
12950;SDS011;6540;50.858;7.232;2022-09-16T01:16:10;5.90;;;1.87;;
12950;SDS011;6540;50.858;7.232;2022-09-16T01:18:39;5.07;;;2.03;;
12950;SDS011;6540;50.858;7.232;2022-09-16T01:27:09;2.47;;;2.00;;
12950;SDS011;6540;50.858;7.232;2022-09-16T01:32:25;3.47;;;1.80;;
12950;SDS011;6540;50.858;7.232;2022-09-16T01:42:49;4.60;;;2.10;;
12950;SDS011;6540;50.858;7.232;2022-09-16T01:50:59;2.77;;;2.03;;
12950;SDS011;6540;50.858;7.232;2022-09-16T01:53:34;2.43;;;1.67;;
12950;SDS011;6540;50.858;7.232;2022-09-16T01:56:21;4.00;;;2.07;;
12950;SDS011;6540;50.858;7.232;2022-09-16T01:58:55;2.03;;;1.77;;
12950;SDS011;6540;50.858;7.232;2022-09-16T02:01:29;3.73;;;1.70;;
12950;SDS011;6540;50.858;7.232;2022-09-16T02:04:12;1.77;;;1.50;;
12950;SDS011;6540;50.858;7.232;2022-09-16T02:06:41;2.53;;;1.37;;
12950;SDS011;6540;50.858;7.232;2022-09-16T02:09:12;4.97;;;1.90;;
12950;SDS011;6540;50.858;7.232;2022-09-16T02:11:40;5.33;;;1.60;;
12950;SDS011;6540;50.858;7.232;2022-09-16T02:14:12;4.97;;;2.10;;
12950;SDS011;6540;50.858;7.232;2022-09-16T02:16:58;3.47;;;1.60;;
12950;SDS011;6540;50.858;7.232;2022-09-16T02:19:29;2.13;;;1.50;;
12950;SDS011;6540;50.858;7.232;2022-09-16T02:21:58;1.80;;;1.50;;
12950;SDS011;6540;50.858;7.232;2022-09-16T02:24:28;2.60;;;2.03;;
12950;SDS011;6540;50.858;7.232;2022-09-16T02:26:58;2.97;;;1.60;;
12950;SDS011;6540;50.858;7.232;2022-09-16T02:29:29;2.93;;;1.90;;
12950;SDS011;6540;50.858;7.232;2022-09-16T02:32:00;3.57;;;1.70;;
12950;SDS011;6540;50.858;7.232;2022-09-16T02:34:35;2.63;;;1.43;;
12950;SDS011;6540;50.858;7.232;2022-09-16T02:37:14;5.73;;;1.70;;
12950;SDS011;6540;50.858;7.232;2022-09-16T02:39:44;3.27;;;1.80;;
12950;SDS011;6540;50.858;7.232;2022-09-16T02:42:13;2.73;;;1.60;;
12950;SDS011;6540;50.858;7.232;2022-09-16T02:44:40;4.77;;;1.83;;
12950;SDS011;6540;50.858;7.232;2022-09-16T02:47:13;4.87;;;1.73;;
12950;SDS011;6540;50.858;7.232;2022-09-16T02:49:54;4.90;;;1.73;;
12950;SDS011;6540;50.858;7.232;2022-09-16T02:55:12;2.47;;;1.50;;
12950;SDS011;6540;50.858;7.232;2022-09-16T02:57:38;5.30;;;1.53;;
12950;SDS011;6540;50.858;7.232;2022-09-16T03:00:04;1.90;;;1.27;;
12950;SDS011;6540;50.858;7.232;2022-09-16T03:02:31;2.83;;;1.60;;
12950;SDS011;6540;50.858;7.232;2022-09-16T03:04:58;3.63;;;1.40;;
12950;SDS011;6540;50.858;7.232;2022-09-16T03:07:24;2.83;;;1.50;;
12950;SDS011;6540;50.858;7.232;2022-09-16T03:09:50;1.90;;;1.70;;
12950;SDS011;6540;50.858;7.232;2022-09-16T03:12:32;7.33;;;1.87;;
12950;SDS011;6540;50.858;7.232;2022-09-16T03:18:13;2.37;;;1.70;;
12950;SDS011;6540;50.858;7.232;2022-09-16T03:20:55;5.03;;;1.70;;
12950;SDS011;6540;50.858;7.232;2022-09-16T03:26:21;3.43;;;1.67;;
12950;SDS011;6540;50.858;7.232;2022-09-16T03:34:29;3.97;;;1.70;;
12950;SDS011;6540;50.858;7.232;2022-09-16T03:37:10;3.43;;;1.70;;
12950;SDS011;6540;50.858;7.232;2022-09-16T03:39:39;2.90;;;1.80;;
12950;SDS011;6540;50.858;7.232;2022-09-16T03:42:06;5.40;;;1.73;;
12950;SDS011;6540;50.858;7.232;2022-09-16T03:44:36;5.07;;;1.63;;
12950;SDS011;6540;50.858;7.232;2022-09-16T03:47:03;3.73;;;1.83;;
12950;SDS011;6540;50.858;7.232;2022-09-16T03:49:29;4.33;;;2.00;;
12950;SDS011;6540;50.858;7.232;2022-09-16T03:51:55;4.07;;;2.13;;
12950;SDS011;6540;50.858;7.232;2022-09-16T03:54:21;5.27;;;2.00;;
12950;SDS011;6540;50.858;7.232;2022-09-16T03:56:46;3.73;;;1.77;;
12950;SDS011;6540;50.858;7.232;2022-09-16T03:59:12;5.30;;;1.70;;
12950;SDS011;6540;50.858;7.232;2022-09-16T04:01:38;1.80;;;1.70;;
12950;SDS011;6540;50.858;7.232;2022-09-16T04:04:03;5.43;;;1.97;;
12950;SDS011;6540;50.858;7.232;2022-09-16T04:06:29;3.20;;;1.63;;
12950;SDS011;6540;50.858;7.232;2022-09-16T04:08:54;2.83;;;1.70;;
12950;SDS011;6540;50.858;7.232;2022-09-16T04:11:21;7.40;;;1.70;;
12950;SDS011;6540;50.858;7.232;2022-09-16T04:13:46;4.67;;;1.57;;
12950;SDS011;6540;50.858;7.232;2022-09-16T04:16:17;2.13;;;1.53;;
12950;SDS011;6540;50.858;7.232;2022-09-16T04:18:44;2.80;;;1.50;;
12950;SDS011;6540;50.858;7.232;2022-09-16T04:21:09;3.37;;;1.97;;
12950;SDS011;6540;50.858;7.232;2022-09-16T04:23:34;3.53;;;1.93;;
12950;SDS011;6540;50.858;7.232;2022-09-16T04:26:01;3.43;;;1.73;;
12950;SDS011;6540;50.858;7.232;2022-09-16T04:28:27;7.60;;;2.20;;
12950;SDS011;6540;50.858;7.232;2022-09-16T04:30:57;2.30;;;1.90;;
12950;SDS011;6540;50.858;7.232;2022-09-16T04:33:30;3.00;;;1.87;;
12950;SDS011;6540;50.858;7.232;2022-09-16T04:36:00;2.03;;;1.83;;
12950;SDS011;6540;50.858;7.232;2022-09-16T04:38:27;4.30;;;2.57;;
12950;SDS011;6540;50.858;7.232;2022-09-16T04:40:57;4.03;;;1.93;;
12950;SDS011;6540;50.858;7.232;2022-09-16T04:43:25;1.93;;;1.63;;
12950;SDS011;6540;50.858;7.232;2022-09-16T04:45:50;8.23;;;1.57;;
12950;SDS011;6540;50.858;7.232;2022-09-16T04:48:15;3.70;;;2.00;;
12950;SDS011;6540;50.858;7.232;2022-09-16T04:50:42;4.13;;;2.50;;
12950;SDS011;6540;50.858;7.232;2022-09-16T04:53:07;3.90;;;2.07;;
12950;SDS011;6540;50.858;7.232;2022-09-16T04:55:32;2.20;;;1.97;;
12950;SDS011;6540;50.858;7.232;2022-09-16T04:57:58;4.37;;;2.13;;
12950;SDS011;6540;50.858;7.232;2022-09-16T05:00:24;2.53;;;1.90;;
12950;SDS011;6540;50.858;7.232;2022-09-16T05:02:51;4.77;;;1.70;;
12950;SDS011;6540;50.858;7.232;2022-09-16T05:05:18;5.87;;;2.20;;
12950;SDS011;6540;50.858;7.232;2022-09-16T05:07:45;4.47;;;2.00;;
12950;SDS011;6540;50.858;7.232;2022-09-16T05:10:10;3.13;;;1.70;;
12950;SDS011;6540;50.858;7.232;2022-09-16T05:12:36;4.70;;;2.10;;
12950;SDS011;6540;50.858;7.232;2022-09-16T05:15:02;3.10;;;2.07;;
12950;SDS011;6540;50.858;7.232;2022-09-16T05:17:28;5.33;;;2.07;;
12950;SDS011;6540;50.858;7.232;2022-09-16T05:19:55;4.23;;;2.00;;
12950;SDS011;6540;50.858;7.232;2022-09-16T05:22:20;5.03;;;2.40;;
12950;SDS011;6540;50.858;7.232;2022-09-16T05:24:46;4.07;;;2.20;;
12950;SDS011;6540;50.858;7.232;2022-09-16T05:27:11;3.20;;;2.20;;
12950;SDS011;6540;50.858;7.232;2022-09-16T05:29:37;3.57;;;2.23;;
12950;SDS011;6540;50.858;7.232;2022-09-16T05:32:02;3.40;;;2.10;;
12950;SDS011;6540;50.858;7.232;2022-09-16T05:34:27;8.17;;;2.30;;
12950;SDS011;6540;50.858;7.232;2022-09-16T05:36:53;3.17;;;2.10;;
12950;SDS011;6540;50.858;7.232;2022-09-16T05:39:21;8.77;;;2.50;;
12950;SDS011;6540;50.858;7.232;2022-09-16T05:41:54;5.90;;;2.30;;
12950;SDS011;6540;50.858;7.232;2022-09-16T05:44:21;9.27;;;2.37;;
12950;SDS011;6540;50.858;7.232;2022-09-16T05:46:48;6.47;;;1.90;;
12950;SDS011;6540;50.858;7.232;2022-09-16T05:49:14;7.13;;;2.00;;
12950;SDS011;6540;50.858;7.232;2022-09-16T05:51:44;4.27;;;2.10;;
12950;SDS011;6540;50.858;7.232;2022-09-16T05:54:11;5.93;;;2.10;;
12950;SDS011;6540;50.858;7.232;2022-09-16T05:56:37;2.47;;;2.00;;
12950;SDS011;6540;50.858;7.232;2022-09-16T05:59:03;3.93;;;2.20;;
12950;SDS011;6540;50.858;7.232;2022-09-16T06:01:30;3.13;;;2.03;;
12950;SDS011;6540;50.858;7.232;2022-09-16T06:04:02;2.30;;;1.90;;
12950;SDS011;6540;50.858;7.232;2022-09-16T06:06:31;2.53;;;2.30;;
12950;SDS011;6540;50.858;7.232;2022-09-16T06:09:16;3.13;;;2.17;;
12950;SDS011;6540;50.858;7.232;2022-09-16T06:11:47;9.60;;;2.70;;
12950;SDS011;6540;50.858;7.232;2022-09-16T06:14:14;3.03;;;2.27;;
12950;SDS011;6540;50.858;7.232;2022-09-16T06:16:41;7.40;;;2.80;;
12950;SDS011;6540;50.858;7.232;2022-09-16T06:19:08;4.17;;;2.73;;
12950;SDS011;6540;50.858;7.232;2022-09-16T06:21:37;3.57;;;1.90;;
12950;SDS011;6540;50.858;7.232;2022-09-16T06:24:07;7.70;;;2.17;;
12950;SDS011;6540;50.858;7.232;2022-09-16T06:26:34;6.87;;;2.10;;
12950;SDS011;6540;50.858;7.232;2022-09-16T06:29:01;10.23;;;2.30;;
12950;SDS011;6540;50.858;7.232;2022-09-16T06:31:27;6.43;;;1.83;;
12950;SDS011;6540;50.858;7.232;2022-09-16T06:33:54;6.10;;;2.20;;
12950;SDS011;6540;50.858;7.232;2022-09-16T06:36:20;5.47;;;1.70;;
12950;SDS011;6540;50.858;7.232;2022-09-16T06:38:47;2.90;;;1.57;;
12950;SDS011;6540;50.858;7.232;2022-09-16T06:41:14;6.80;;;2.00;;
12950;SDS011;6540;50.858;7.232;2022-09-16T06:43:41;4.97;;;1.60;;
12950;SDS011;6540;50.858;7.232;2022-09-16T06:46:09;2.73;;;1.70;;
12950;SDS011;6540;50.858;7.232;2022-09-16T06:48:42;3.10;;;1.60;;
12950;SDS011;6540;50.858;7.232;2022-09-16T06:51:15;3.30;;;1.50;;
12950;SDS011;6540;50.858;7.232;2022-09-16T06:53:45;6.40;;;1.90;;
12950;SDS011;6540;50.858;7.232;2022-09-16T06:56:14;2.50;;;1.37;;
12950;SDS011;6540;50.858;7.232;2022-09-16T06:58:43;2.73;;;1.80;;
12950;SDS011;6540;50.858;7.232;2022-09-16T07:01:13;3.07;;;1.57;;
12950;SDS011;6540;50.858;7.232;2022-09-16T07:03:47;2.80;;;1.33;;
12950;SDS011;6540;50.858;7.232;2022-09-16T07:06:13;5.60;;;1.93;;
12950;SDS011;6540;50.858;7.232;2022-09-16T07:08:40;4.27;;;2.03;;
12950;SDS011;6540;50.858;7.232;2022-09-16T07:11:11;3.57;;;1.90;;
12950;SDS011;6540;50.858;7.232;2022-09-16T07:13:44;2.80;;;1.60;;
12950;SDS011;6540;50.858;7.232;2022-09-16T07:16:14;1.90;;;1.50;;
12950;SDS011;6540;50.858;7.232;2022-09-16T07:18:41;1.80;;;1.57;;
12950;SDS011;6540;50.858;7.232;2022-09-16T07:21:17;4.93;;;1.90;;
12950;SDS011;6540;50.858;7.232;2022-09-16T07:23:44;5.47;;;1.67;;
12950;SDS011;6540;50.858;7.232;2022-09-16T07:26:17;5.33;;;2.17;;
12950;SDS011;6540;50.858;7.232;2022-09-16T07:28:45;3.90;;;1.57;;
12950;SDS011;6540;50.858;7.232;2022-09-16T07:31:13;7.43;;;1.77;;
12950;SDS011;6540;50.858;7.232;2022-09-16T07:33:41;5.17;;;1.70;;
12950;SDS011;6540;50.858;7.232;2022-09-16T07:36:09;2.33;;;1.40;;
12950;SDS011;6540;50.858;7.232;2022-09-16T07:38:36;3.00;;;1.63;;
12950;SDS011;6540;50.858;7.232;2022-09-16T07:41:03;4.03;;;1.53;;
12950;SDS011;6540;50.858;7.232;2022-09-16T07:43:33;5.20;;;1.70;;
12950;SDS011;6540;50.858;7.232;2022-09-16T07:45:59;4.20;;;1.80;;
12950;SDS011;6540;50.858;7.232;2022-09-16T07:48:25;4.17;;;1.77;;
12950;SDS011;6540;50.858;7.232;2022-09-16T07:50:57;3.73;;;1.90;;
12950;SDS011;6540;50.858;7.232;2022-09-16T07:53:25;3.60;;;1.53;;
12950;SDS011;6540;50.858;7.232;2022-09-16T07:55:53;2.20;;;1.60;;
12950;SDS011;6540;50.858;7.232;2022-09-16T07:58:19;2.93;;;2.07;;
12950;SDS011;6540;50.858;7.232;2022-09-16T08:00:46;6.43;;;2.00;;
12950;SDS011;6540;50.858;7.232;2022-09-16T08:03:13;4.47;;;2.20;;
12950;SDS011;6540;50.858;7.232;2022-09-16T08:05:38;3.93;;;1.80;;
12950;SDS011;6540;50.858;7.232;2022-09-16T08:08:04;4.00;;;1.67;;
12950;SDS011;6540;50.858;7.232;2022-09-16T08:10:30;4.43;;;1.60;;
12950;SDS011;6540;50.858;7.232;2022-09-16T08:12:56;6.00;;;1.97;;
12950;SDS011;6540;50.858;7.232;2022-09-16T08:15:21;3.00;;;1.60;;
12950;SDS011;6540;50.858;7.232;2022-09-16T08:17:46;5.30;;;1.80;;
12950;SDS011;6540;50.858;7.232;2022-09-16T08:20:12;3.23;;;1.50;;
12950;SDS011;6540;50.858;7.232;2022-09-16T08:22:38;1.40;;;1.30;;
12950;SDS011;6540;50.858;7.232;2022-09-16T08:25:03;4.60;;;1.63;;
12950;SDS011;6540;50.858;7.232;2022-09-16T08:27:29;3.50;;;1.43;;
12950;SDS011;6540;50.858;7.232;2022-09-16T08:29:54;4.47;;;1.30;;
12950;SDS011;6540;50.858;7.232;2022-09-16T08:32:20;1.60;;;1.50;;
12950;SDS011;6540;50.858;7.232;2022-09-16T08:34:45;3.27;;;1.60;;
12950;SDS011;6540;50.858;7.232;2022-09-16T08:37:11;2.37;;;1.70;;
12950;SDS011;6540;50.858;7.232;2022-09-16T08:39:36;2.70;;;1.60;;
12950;SDS011;6540;50.858;7.232;2022-09-16T08:50:18;3.37;;;1.60;;
12950;SDS011;6540;50.858;7.232;2022-09-16T08:52:55;6.13;;;1.50;;
12950;SDS011;6540;50.858;7.232;2022-09-16T08:55:25;2.53;;;1.13;;
12950;SDS011;6540;50.858;7.232;2022-09-16T09:00:30;2.97;;;1.73;;
12950;SDS011;6540;50.858;7.232;2022-09-16T09:08:32;4.57;;;2.00;;
12950;SDS011;6540;50.858;7.232;2022-09-16T09:11:34;5.90;;;2.27;;
12950;SDS011;6540;50.858;7.232;2022-09-16T09:30:20;3.70;;;1.70;;
12950;SDS011;6540;50.858;7.232;2022-09-16T09:39:14;2.00;;;1.60;;
12950;SDS011;6540;50.858;7.232;2022-09-16T09:42:34;2.17;;;1.50;;
12950;SDS011;6540;50.858;7.232;2022-09-16T09:47:38;1.87;;;1.20;;
12950;SDS011;6540;50.858;7.232;2022-09-16T09:50:13;2.13;;;1.40;;
12950;SDS011;6540;50.858;7.232;2022-09-16T09:52:48;4.87;;;1.53;;
12950;SDS011;6540;50.858;7.232;2022-09-16T09:55:20;1.73;;;1.40;;
12950;SDS011;6540;50.858;7.232;2022-09-16T10:01:09;1.73;;;1.57;;
12950;SDS011;6540;50.858;7.232;2022-09-16T10:03:35;1.97;;;1.40;;
12950;SDS011;6540;50.858;7.232;2022-09-16T10:06:05;1.70;;;1.60;;
12950;SDS011;6540;50.858;7.232;2022-09-16T10:11:21;3.50;;;1.50;;
12950;SDS011;6540;50.858;7.232;2022-09-16T10:13:49;4.63;;;1.17;;
12950;SDS011;6540;50.858;7.232;2022-09-16T10:16:17;6.17;;;1.37;;
12950;SDS011;6540;50.858;7.232;2022-09-16T10:18:52;3.77;;;1.13;;
12950;SDS011;6540;50.858;7.232;2022-09-16T10:21:20;3.23;;;1.30;;
12950;SDS011;6540;50.858;7.232;2022-09-16T10:23:56;4.00;;;1.37;;
12950;SDS011;6540;50.858;7.232;2022-09-16T10:26:23;2.80;;;1.23;;
12950;SDS011;6540;50.858;7.232;2022-09-16T10:29:10;1.27;;;1.13;;
12950;SDS011;6540;50.858;7.232;2022-09-16T10:31:39;1.60;;;0.83;;
12950;SDS011;6540;50.858;7.232;2022-09-16T10:34:17;2.43;;;1.20;;
12950;SDS011;6540;50.858;7.232;2022-09-16T10:36:43;2.47;;;1.30;;
12950;SDS011;6540;50.858;7.232;2022-09-16T10:39:20;1.60;;;1.20;;
12950;SDS011;6540;50.858;7.232;2022-09-16T10:41:47;3.00;;;1.17;;
12950;SDS011;6540;50.858;7.232;2022-09-16T10:52:15;2.83;;;1.60;;
12950;SDS011;6540;50.858;7.232;2022-09-16T10:54:48;4.93;;;1.87;;
12950;SDS011;6540;50.858;7.232;2022-09-16T10:57:31;2.27;;;1.10;;
12950;SDS011;6540;50.858;7.232;2022-09-16T11:00:17;1.70;;;1.10;;
12950;SDS011;6540;50.858;7.232;2022-09-16T11:08:10;2.17;;;1.00;;
12950;SDS011;6540;50.858;7.232;2022-09-16T11:11:02;2.47;;;1.27;;
12950;SDS011;6540;50.858;7.232;2022-09-16T11:19:20;1.80;;;1.00;;
12950;SDS011;6540;50.858;7.232;2022-09-16T11:21:54;2.40;;;1.30;;
12950;SDS011;6540;50.858;7.232;2022-09-16T11:24:32;3.97;;;1.67;;
12950;SDS011;6540;50.858;7.232;2022-09-16T11:35:31;2.43;;;1.30;;
12950;SDS011;6540;50.858;7.232;2022-09-16T11:46:58;2.63;;;1.20;;
12950;SDS011;6540;50.858;7.232;2022-09-16T11:52:48;1.93;;;1.10;;
12950;SDS011;6540;50.858;7.232;2022-09-16T11:58:27;2.03;;;1.17;;
12950;SDS011;6540;50.858;7.232;2022-09-16T12:06:28;1.10;;;0.80;;
12950;SDS011;6540;50.858;7.232;2022-09-16T12:09:01;3.40;;;1.20;;
12950;SDS011;6540;50.858;7.232;2022-09-16T12:11:36;1.60;;;0.80;;
12950;SDS011;6540;50.858;7.232;2022-09-16T12:14:23;4.00;;;1.40;;
12950;SDS011;6540;50.858;7.232;2022-09-16T12:25:11;0.60;;;0.60;;
12950;SDS011;6540;50.858;7.232;2022-09-16T12:30:30;2.63;;;0.80;;
12950;SDS011;6540;50.858;7.232;2022-09-16T12:33:05;1.70;;;0.90;;
12950;SDS011;6540;50.858;7.232;2022-09-16T12:35:43;1.97;;;1.07;;
12950;SDS011;6540;50.858;7.232;2022-09-16T12:38:16;1.37;;;0.77;;
12950;SDS011;6540;50.858;7.232;2022-09-16T13:02:50;6.97;;;1.07;;
12950;SDS011;6540;50.858;7.232;2022-09-16T13:05:34;2.03;;;0.87;;
12950;SDS011;6540;50.858;7.232;2022-09-16T13:08:02;2.30;;;1.03;;
12950;SDS011;6540;50.858;7.232;2022-09-16T13:10:33;2.53;;;0.63;;
12950;SDS011;6540;50.858;7.232;2022-09-16T13:13:03;0.83;;;0.70;;
12950;SDS011;6540;50.858;7.232;2022-09-16T13:15:30;1.23;;;1.13;;
12950;SDS011;6540;50.858;7.232;2022-09-16T13:18:08;2.20;;;0.90;;
12950;SDS011;6540;50.858;7.232;2022-09-16T13:21:05;3.70;;;1.27;;
12950;SDS011;6540;50.858;7.232;2022-09-16T13:23:34;0.97;;;0.93;;
12950;SDS011;6540;50.858;7.232;2022-09-16T13:26:07;1.70;;;0.90;;
12950;SDS011;6540;50.858;7.232;2022-09-16T13:33:43;1.93;;;0.70;;
12950;SDS011;6540;50.858;7.232;2022-09-16T13:38:53;1.30;;;1.20;;
12950;SDS011;6540;50.858;7.232;2022-09-16T13:41:31;1.40;;;1.30;;
12950;SDS011;6540;50.858;7.232;2022-09-16T13:43:56;2.23;;;1.17;;
12950;SDS011;6540;50.858;7.232;2022-09-16T13:51:18;1.53;;;1.43;;
12950;SDS011;6540;50.858;7.232;2022-09-16T13:53:46;1.70;;;1.47;;
12950;SDS011;6540;50.858;7.232;2022-09-16T14:02:19;1.50;;;1.40;;
12950;SDS011;6540;50.858;7.232;2022-09-16T14:07:50;2.60;;;1.90;;
12950;SDS011;6540;50.858;7.232;2022-09-16T14:10:33;2.93;;;1.77;;
12950;SDS011;6540;50.858;7.232;2022-09-16T14:13:21;1.70;;;1.60;;
12950;SDS011;6540;50.858;7.232;2022-09-16T14:15:51;1.47;;;1.37;;
12950;SDS011;6540;50.858;7.232;2022-09-16T14:18:21;3.93;;;1.80;;
12950;SDS011;6540;50.858;7.232;2022-09-16T14:21:04;4.23;;;1.70;;
12950;SDS011;6540;50.858;7.232;2022-09-16T14:23:40;2.03;;;1.37;;
12950;SDS011;6540;50.858;7.232;2022-09-16T14:26:13;1.83;;;1.53;;
12950;SDS011;6540;50.858;7.232;2022-09-16T14:28:41;1.73;;;1.37;;
12950;SDS011;6540;50.858;7.232;2022-09-16T14:31:28;4.47;;;1.30;;
12950;SDS011;6540;50.858;7.232;2022-09-16T14:33:55;3.87;;;1.70;;
12950;SDS011;6540;50.858;7.232;2022-09-16T14:36:26;5.70;;;1.60;;
12950;SDS011;6540;50.858;7.232;2022-09-16T14:38:56;2.60;;;1.50;;
12950;SDS011;6540;50.858;7.232;2022-09-16T14:41:30;1.60;;;1.50;;
12950;SDS011;6540;50.858;7.232;2022-09-16T14:43:58;1.37;;;1.10;;
12950;SDS011;6540;50.858;7.232;2022-09-16T14:46:41;1.77;;;1.23;;
12950;SDS011;6540;50.858;7.232;2022-09-16T14:49:10;3.27;;;1.80;;
12950;SDS011;6540;50.858;7.232;2022-09-16T14:51:38;5.37;;;1.43;;
12950;SDS011;6540;50.858;7.232;2022-09-16T14:54:14;1.33;;;1.23;;
12950;SDS011;6540;50.858;7.232;2022-09-16T14:56:41;1.87;;;1.27;;
12950;SDS011;6540;50.858;7.232;2022-09-16T14:59:08;1.57;;;1.30;;
12950;SDS011;6540;50.858;7.232;2022-09-16T15:01:36;3.10;;;1.23;;
12950;SDS011;6540;50.858;7.232;2022-09-16T15:04:03;1.97;;;1.40;;
12950;SDS011;6540;50.858;7.232;2022-09-16T15:06:34;2.67;;;1.90;;
12950;SDS011;6540;50.858;7.232;2022-09-16T15:09:07;2.70;;;1.33;;
12950;SDS011;6540;50.858;7.232;2022-09-16T15:11:46;4.17;;;1.50;;
12950;SDS011;6540;50.858;7.232;2022-09-16T15:14:18;4.80;;;1.60;;
12950;SDS011;6540;50.858;7.232;2022-09-16T15:16:47;1.77;;;1.40;;
12950;SDS011;6540;50.858;7.232;2022-09-16T15:19:20;2.37;;;1.30;;
12950;SDS011;6540;50.858;7.232;2022-09-16T15:21:49;1.60;;;1.37;;
12950;SDS011;6540;50.858;7.232;2022-09-16T15:24:20;3.20;;;1.27;;
12950;SDS011;6540;50.858;7.232;2022-09-16T15:26:48;2.50;;;1.00;;
12950;SDS011;6540;50.858;7.232;2022-09-16T15:31:43;4.10;;;1.40;;
12950;SDS011;6540;50.858;7.232;2022-09-16T15:36:42;2.40;;;1.33;;
12950;SDS011;6540;50.858;7.232;2022-09-16T15:39:25;1.73;;;1.20;;
12950;SDS011;6540;50.858;7.232;2022-09-16T15:44:55;2.60;;;0.93;;
12950;SDS011;6540;50.858;7.232;2022-09-16T15:47:30;1.30;;;1.20;;
12950;SDS011;6540;50.858;7.232;2022-09-16T15:50:05;2.27;;;0.90;;
12950;SDS011;6540;50.858;7.232;2022-09-16T15:52:31;1.17;;;1.07;;
12950;SDS011;6540;50.858;7.232;2022-09-16T15:55:25;2.73;;;1.00;;
12950;SDS011;6540;50.858;7.232;2022-09-16T15:58:00;0.97;;;0.90;;
12950;SDS011;6540;50.858;7.232;2022-09-16T16:00:52;2.50;;;0.90;;
12950;SDS011;6540;50.858;7.232;2022-09-16T16:03:19;1.30;;;1.07;;
12950;SDS011;6540;50.858;7.232;2022-09-16T16:05:52;2.57;;;0.97;;
12950;SDS011;6540;50.858;7.232;2022-09-16T16:11:09;2.23;;;1.00;;
12950;SDS011;6540;50.858;7.232;2022-09-16T16:13:39;2.43;;;0.80;;
12950;SDS011;6540;50.858;7.232;2022-09-16T16:16:04;2.57;;;1.13;;
12950;SDS011;6540;50.858;7.232;2022-09-16T16:18:32;4.40;;;1.33;;
12950;SDS011;6540;50.858;7.232;2022-09-16T16:20:59;2.40;;;1.23;;
12950;SDS011;6540;50.858;7.232;2022-09-16T16:23:29;3.77;;;1.10;;
12950;SDS011;6540;50.858;7.232;2022-09-16T16:25:54;1.40;;;1.00;;
12950;SDS011;6540;50.858;7.232;2022-09-16T16:28:20;2.40;;;1.23;;
12950;SDS011;6540;50.858;7.232;2022-09-16T16:30:45;1.67;;;1.10;;
12950;SDS011;6540;50.858;7.232;2022-09-16T16:33:11;1.73;;;1.10;;
12950;SDS011;6540;50.858;7.232;2022-09-16T16:35:36;2.20;;;1.10;;
12950;SDS011;6540;50.858;7.232;2022-09-16T16:38:02;1.87;;;1.10;;
12950;SDS011;6540;50.858;7.232;2022-09-16T16:40:27;2.50;;;1.17;;
12950;SDS011;6540;50.858;7.232;2022-09-16T16:42:53;3.93;;;1.40;;
12950;SDS011;6540;50.858;7.232;2022-09-16T16:45:18;2.80;;;1.10;;
12950;SDS011;6540;50.858;7.232;2022-09-16T16:47:45;0.80;;;0.80;;
12950;SDS011;6540;50.858;7.232;2022-09-16T16:50:10;1.10;;;1.00;;
12950;SDS011;6540;50.858;7.232;2022-09-16T16:52:36;2.60;;;1.40;;
12950;SDS011;6540;50.858;7.232;2022-09-16T16:55:02;2.70;;;1.00;;
12950;SDS011;6540;50.858;7.232;2022-09-16T16:57:27;7.00;;;0.93;;
12950;SDS011;6540;50.858;7.232;2022-09-16T16:59:52;4.30;;;1.10;;
12950;SDS011;6540;50.858;7.232;2022-09-16T17:02:18;1.47;;;1.00;;
12950;SDS011;6540;50.858;7.232;2022-09-16T17:04:44;4.83;;;1.27;;
12950;SDS011;6540;50.858;7.232;2022-09-16T17:07:09;2.53;;;1.03;;
12950;SDS011;6540;50.858;7.232;2022-09-16T17:09:36;1.20;;;1.10;;
12950;SDS011;6540;50.858;7.232;2022-09-16T17:12:02;1.10;;;1.00;;
12950;SDS011;6540;50.858;7.232;2022-09-16T17:14:29;1.47;;;1.00;;
12950;SDS011;6540;50.858;7.232;2022-09-16T17:16:55;1.90;;;0.73;;
12950;SDS011;6540;50.858;7.232;2022-09-16T17:19:22;3.73;;;1.23;;
12950;SDS011;6540;50.858;7.232;2022-09-16T17:21:48;1.57;;;1.20;;
12950;SDS011;6540;50.858;7.232;2022-09-16T17:24:15;4.10;;;2.00;;
12950;SDS011;6540;50.858;7.232;2022-09-16T17:26:41;3.33;;;1.30;;
12950;SDS011;6540;50.858;7.232;2022-09-16T17:29:07;1.27;;;1.13;;
12950;SDS011;6540;50.858;7.232;2022-09-16T17:31:33;2.23;;;1.33;;
12950;SDS011;6540;50.858;7.232;2022-09-16T17:34:03;3.87;;;1.63;;
12950;SDS011;6540;50.858;7.232;2022-09-16T17:36:33;3.97;;;1.20;;
12950;SDS011;6540;50.858;7.232;2022-09-16T17:39:03;4.17;;;1.60;;
12950;SDS011;6540;50.858;7.232;2022-09-16T17:41:30;3.87;;;1.60;;
12950;SDS011;6540;50.858;7.232;2022-09-16T17:43:57;2.33;;;0.93;;
12950;SDS011;6540;50.858;7.232;2022-09-16T17:46:23;4.60;;;1.50;;
12950;SDS011;6540;50.858;7.232;2022-09-16T17:48:51;2.60;;;2.13;;
12950;SDS011;6540;50.858;7.232;2022-09-16T17:51:17;2.27;;;1.90;;
12950;SDS011;6540;50.858;7.232;2022-09-16T17:53:43;3.27;;;2.27;;
12950;SDS011;6540;50.858;7.232;2022-09-16T17:56:10;2.23;;;1.77;;
12950;SDS011;6540;50.858;7.232;2022-09-16T17:58:38;2.63;;;2.00;;
12950;SDS011;6540;50.858;7.232;2022-09-16T18:01:09;5.00;;;2.20;;
12950;SDS011;6540;50.858;7.232;2022-09-16T18:03:40;5.93;;;2.33;;
12950;SDS011;6540;50.858;7.232;2022-09-16T18:08:36;4.53;;;2.83;;
12950;SDS011;6540;50.858;7.232;2022-09-16T18:11:03;3.40;;;2.00;;
12950;SDS011;6540;50.858;7.232;2022-09-16T18:13:29;2.83;;;1.57;;
12950;SDS011;6540;50.858;7.232;2022-09-16T18:15:59;3.30;;;2.13;;
12950;SDS011;6540;50.858;7.232;2022-09-16T18:18:33;2.17;;;1.83;;
12950;SDS011;6540;50.858;7.232;2022-09-16T18:21:02;3.67;;;1.67;;
12950;SDS011;6540;50.858;7.232;2022-09-16T18:23:29;1.77;;;1.50;;
12950;SDS011;6540;50.858;7.232;2022-09-16T18:25:55;5.30;;;1.93;;
12950;SDS011;6540;50.858;7.232;2022-09-16T18:28:33;3.47;;;2.03;;
12950;SDS011;6540;50.858;7.232;2022-09-16T18:31:01;4.03;;;2.40;;
12950;SDS011;6540;50.858;7.232;2022-09-16T18:33:32;1.50;;;1.40;;
12950;SDS011;6540;50.858;7.232;2022-09-16T18:36:05;4.53;;;1.80;;
12950;SDS011;6540;50.858;7.232;2022-09-16T18:38:32;3.33;;;1.80;;